Time,TemperatureF,DewpointF,PressureIn,WindDirection,WindDirectionDegrees,WindSpeedMPH,WindSpeedGustMPH,Humidity,HourlyPrecipIn,Conditions,Clouds,dailyrainin,SoftwareType,DateUTC
2013-02-15 00:01:00,52.5,44.8,30.14,ENE,70,0.0,0.0,75,0.00,NA,NA,-99.99,VWS Version 10.39,2013-02-15 08:01:00,
2013-02-15 00:11:00,53.0,44.2,30.14,NE,37,2.0,4.0,72,0.00,NA,NA,-99.99,VWS Version 10.39,2013-02-15 08:11:00,
2013-02-15 00:16:00,53.1,43.2,30.14,NE,42,1.0,2.0,69,0.00,NA,NA,-99.99,VWS Version 10.39,2013-02-15 08:16:00,
2013-02-15 00:21:00,53.2,43.7,30.14,WSW,240,0.0,0.0,70,0.00,NA,NA,-99.99,VWS Version 10.39,2013-02-15 08:21:00,
2013-02-15 00:26:00,53.3,43.8,30.14,WSW,240,0.0,1.0,70,0.00,NA,NA,-99.99,VWS Version 10.39,2013-02-15 08:26:00,
2013-02-15 00:31:00,53.1,43.2,30.14,WSW,240,0.0,0.0,69,0.00,NA,NA,-99.99,VWS Version 10.39,2013-02-15 08:31:00,
2013-02-15 00:36:00,52.9,43.0,30.14,South,172,0.0,1.0,69,0.00,NA,NA,-99.99,VWS Version 10.39,2013-02-15 08:36:00,
2013-02-15 00:41:00,52.1,42.2,30.13,East,100,2.0,3.0,69,0.00,NA,NA,-99.99,VWS Version 10.39,2013-02-15 08:41:00,
2013-02-15 00:46:00,51.9,42.1,30.13,ENE,66,1.0,1.0,69,0.00,NA,NA,-99.99,VWS Version 10.39,2013-02-15 08:46:00,
2013-02-15 00:51:00,51.9,41.7,30.14,ENE,66,0.0,1.0,68,0.00,NA,NA,-99.99,VWS Version 10.39,2013-02-15 08:51:00,
2013-02-15 00:56:00,52.1,42.6,30.13,ENE,66,2.0,2.0,70,0.00,NA,NA,-99.99,VWS Version 10.39,2013-02-15 08:56:00,
2013-02-15 01:01:00,52.2,43.1,30.13,ENE,66,2.0,2.0,71,0.00,NA,NA,-99.99,VWS Version 10.39,2013-02-15 09:01:00,
2013-02-15 01:11:00,53.2,47.9,30.13,WNW,284,0.0,1.0,82,0.00,NA,NA,-99.99,VWS Version 10.39,2013-02-15 09:11:00,
2013-02-15 01:16:00,53.5,48.2,30.13,WNW,284,0.0,0.0,82,0.00,NA,NA,-99.99,VWS Version 10.39,2013-02-15 09:16:00,
2013-02-15 01:21:00,53.8,48.8,30.13,West,281,1.0,1.0,83,0.00,NA,NA,-99.99,VWS Version 10.39,2013-02-15 09:21:00,
2013-02-15 01:26:00,53.5,47.2,30.13,NNW,339,1.0,2.0,79,0.00,NA,NA,-99.99,VWS Version 10.39,2013-02-15 09:26:00,
2013-02-15 01:31:00,52.7,45.4,30.13,NW,317,3.0,4.0,76,0.00,NA,NA,-99.99,VWS Version 10.39,2013-02-15 09:31:00,
2013-02-15 01:36:00,53.2,46.5,30.12,NW,321,3.0,3.0,78,0.00,NA,NA,-99.99,VWS Version 10.39,2013-02-15 09:36:00,
2013-02-15 01:41:00,54.1,46.4,30.12,NW,317,0.0,2.0,75,0.00,NA,NA,-99.99,VWS Version 10.39,2013-02-15 09:41:00,
2013-02-15 01:46:00,54.5,45.7,30.13,NW,317,0.0,1.0,72,0.00,NA,NA,-99.99,VWS Version 10.39,2013-02-15 09:46:00,
2013-02-15 01:51:00,54.8,46.7,30.13,NW,317,0.0,0.0,74,0.00,NA,NA,-99.99,VWS Version 10.39,2013-02-15 09:51:00,
2013-02-15 01:56:00,54.7,42.4,30.13,North,5,0.0,0.0,63,0.00,NA,NA,-99.99,VWS Version 10.39,2013-02-15 09:56:00,
2013-02-15 02:01:00,55.6,42.4,30.12,ESE,113,2.0,2.0,61,0.00,NA,NA,-99.99,VWS Version 10.39,2013-02-15 10:01:00,
2013-02-15 02:06:00,56.7,39.8,30.12,ESE,107,2.0,2.0,53,0.00,NA,NA,-99.99,VWS Version 10.39,2013-02-15 10:06:00,
2013-02-15 02:11:00,58.1,37.5,30.12,East,99,0.0,0.0,46,0.00,NA,NA,-99.99,VWS Version 10.39,2013-02-15 10:11:00,
2013-02-15 02:16:00,58.4,41.3,30.12,East,99,1.0,2.0,53,0.00,NA,NA,-99.99,VWS Version 10.39,2013-02-15 10:16:00,
2013-02-15 02:21:00,57.9,37.3,30.12,NNE,26,0.0,0.0,46,0.00,NA,NA,-99.99,VWS Version 10.39,2013-02-15 10:21:00,
2013-02-15 02:26:00,57.8,39.3,30.12,NNE,26,1.0,1.0,50,0.00,NA,NA,-99.99,VWS Version 10.39,2013-02-15 10:26:00,
2013-02-15 02:31:00,57.6,39.6,30.12,NNE,26,0.0,1.0,51,0.00,NA,NA,-99.99,VWS Version 10.39,2013-02-15 10:31:00,
2013-02-15 02:36:00,57.3,38.8,30.12,NNE,26,0.0,0.0,50,0.00,NA,NA,-99.99,VWS Version 10.39,2013-02-15 10:36:00,
2013-02-15 02:41:00,56.8,35.1,30.12,East,96,0.0,0.0,44,0.00,NA,NA,-99.99,VWS Version 10.39,2013-02-15 10:41:00,
2013-02-15 02:46:00,56.6,37.7,30.12,WSW,244,2.0,2.0,49,0.00,NA,NA,-99.99,VWS Version 10.39,2013-02-15 10:46:00,
2013-02-15 02:51:00,56.1,40.6,30.12,WSW,244,2.0,2.0,56,0.00,NA,NA,-99.99,VWS Version 10.39,2013-02-15 10:51:00,
2013-02-15 02:56:00,56.0,42.8,30.12,WSW,248,2.0,2.0,61,0.00,NA,NA,-99.99,VWS Version 10.39,2013-02-15 10:56:00,
2013-02-15 03:01:00,56.0,41.0,30.12,WSW,252,1.0,2.0,57,0.00,NA,NA,-99.99,VWS Version 10.39,2013-02-15 11:01:00,
2013-02-15 03:11:00,56.0,43.6,30.12,West,276,3.0,3.0,63,0.00,NA,NA,-99.99,VWS Version 10.39,2013-02-15 11:11:00,
2013-02-15 03:16:00,54.4,43.3,30.12,WNW,287,0.0,0.0,66,0.00,NA,NA,-99.99,VWS Version 10.39,2013-02-15 11:16:00,
2013-02-15 03:21:00,53.7,43.8,30.12,WNW,287,1.0,1.0,69,0.00,NA,NA,-99.99,VWS Version 10.39,2013-02-15 11:21:00,
2013-02-15 03:26:00,52.8,42.5,30.12,ESE,120,1.0,1.0,68,0.00,NA,NA,-99.99,VWS Version 10.39,2013-02-15 11:26:00,
2013-02-15 03:31:00,52.3,42.8,30.12,ESE,120,0.0,1.0,70,0.00,NA,NA,-99.99,VWS Version 10.39,2013-02-15 11:31:00,
2013-02-15 03:36:00,52.2,41.6,30.11,ESE,120,0.0,0.0,67,0.00,NA,NA,-99.99,VWS Version 10.39,2013-02-15 11:36:00,
2013-02-15 03:41:00,52.1,41.1,30.12,ESE,120,0.0,0.0,66,0.00,NA,NA,-99.99,VWS Version 10.39,2013-02-15 11:41:00,
2013-02-15 03:46:00,52.1,41.1,30.12,ESE,120,0.0,0.0,66,0.00,NA,NA,-99.99,VWS Version 10.39,2013-02-15 11:46:00,
2013-02-15 03:51:00,52.1,41.1,30.12,ESE,120,0.0,0.0,66,0.00,NA,NA,-99.99,VWS Version 10.39,2013-02-15 11:51:00,
2013-02-15 03:56:00,52.2,40.0,30.12,ESE,111,1.0,2.0,63,0.00,NA,NA,-99.99,VWS Version 10.39,2013-02-15 11:56:00,
2013-02-15 04:01:00,53.3,39.3,30.12,NE,40,2.0,3.0,59,0.00,NA,NA,-99.99,VWS Version 10.39,2013-02-15 12:01:00,
2013-02-15 04:06:00,53.3,38.0,30.12,NNE,32,0.0,0.0,56,0.00,NA,NA,-99.99,VWS Version 10.39,2013-02-15 12:06:00,
2013-02-15 04:11:00,53.4,36.7,30.12,NNE,32,0.0,1.0,53,0.00,NA,NA,-99.99,VWS Version 10.39,2013-02-15 12:11:00,
2013-02-15 04:16:00,54.0,37.3,30.12,NNE,32,0.0,1.0,53,0.00,NA,NA,-99.99,VWS Version 10.39,2013-02-15 12:16:00,
2013-02-15 04:21:00,54.4,37.6,30.12,ENE,73,0.0,2.0,53,0.00,NA,NA,-99.99,VWS Version 10.39,2013-02-15 12:21:00,
2013-02-15 04:26:00,54.0,37.3,30.12,ENE,73,1.0,2.0,53,0.00,NA,NA,-99.99,VWS Version 10.39,2013-02-15 12:26:00,
2013-02-15 04:31:00,54.2,37.0,30.12,ENE,58,0.0,1.0,52,0.00,NA,NA,-99.99,VWS Version 10.39,2013-02-15 12:31:00,
2013-02-15 04:36:00,54.5,35.2,30.12,NE,41,3.0,3.0,48,0.00,NA,NA,-99.99,VWS Version 10.39,2013-02-15 12:36:00,
2013-02-15 04:41:00,55.9,33.2,30.12,NE,44,1.0,2.0,42,0.00,NA,NA,-99.99,VWS Version 10.39,2013-02-15 12:41:00,
2013-02-15 04:46:00,56.0,33.2,30.13,ENE,61,3.0,4.0,42,0.00,NA,NA,-99.99,VWS Version 10.39,2013-02-15 12:46:00,
2013-02-15 04:51:00,56.1,33.3,30.13,ENE,59,1.0,1.0,42,0.00,NA,NA,-99.99,VWS Version 10.39,2013-02-15 12:51:00,
2013-02-15 04:56:00,56.1,32.7,30.13,ENE,59,2.0,2.0,41,0.00,NA,NA,-99.99,VWS Version 10.39,2013-02-15 12:56:00,
2013-02-15 05:01:00,56.2,32.8,30.12,NE,46,2.0,3.0,41,0.00,NA,NA,-99.99,VWS Version 10.39,2013-02-15 13:01:00,
2013-02-15 05:06:00,56.5,32.5,30.12,ENE,75,4.0,4.0,40,0.00,NA,NA,-99.99,VWS Version 10.39,2013-02-15 13:06:00,
2013-02-15 05:11:00,57.2,33.1,30.12,ENE,78,7.0,10.0,40,0.00,NA,NA,-99.99,VWS Version 10.39,2013-02-15 13:11:00,
2013-02-15 05:16:00,59.4,32.5,30.12,ENE,74,5.0,6.0,36,0.00,NA,NA,-99.99,VWS Version 10.39,2013-02-15 13:16:00,
2013-02-15 05:21:00,61.0,31.7,30.12,East,96,6.0,7.0,33,0.00,NA,NA,-99.99,VWS Version 10.39,2013-02-15 13:21:00,
2013-02-15 05:26:00,61.5,31.4,30.12,East,79,10.0,10.0,32,0.00,NA,NA,-99.99,VWS Version 10.39,2013-02-15 13:26:00,
2013-02-15 05:31:00,61.7,31.6,30.13,ENE,71,4.0,9.0,32,0.00,NA,NA,-99.99,VWS Version 10.39,2013-02-15 13:31:00,
2013-02-15 05:36:00,61.6,31.5,30.12,East,91,6.0,7.0,32,0.00,NA,NA,-99.99,VWS Version 10.39,2013-02-15 13:36:00,
2013-02-15 05:41:00,61.1,31.8,30.13,ENE,67,3.0,7.0,33,0.00,NA,NA,-99.99,VWS Version 10.39,2013-02-15 13:41:00,
2013-02-15 05:46:00,60.7,31.5,30.13,NE,43,6.0,6.0,33,0.00,NA,NA,-99.99,VWS Version 10.39,2013-02-15 13:46:00,
2013-02-15 05:51:00,59.3,31.7,30.13,NE,38,7.0,7.0,35,0.00,NA,NA,-99.99,VWS Version 10.39,2013-02-15 13:51:00,
2013-02-15 05:56:00,58.8,31.9,30.13,NE,49,6.0,7.0,36,0.00,NA,NA,-99.99,VWS Version 10.39,2013-02-15 13:56:00,
2013-02-15 06:01:00,58.4,32.2,30.13,ENE,71,5.0,5.0,37,0.00,NA,NA,-99.99,VWS Version 10.39,2013-02-15 14:01:00,
2013-02-15 06:06:00,59.2,30.9,30.13,East,97,9.0,9.0,34,0.00,NA,NA,-99.99,VWS Version 10.39,2013-02-15 14:06:00,
2013-02-15 06:11:00,61.1,31.0,30.13,East,95,13.0,13.0,32,0.00,NA,NA,-99.99,VWS Version 10.39,2013-02-15 14:11:00,
2013-02-15 06:16:00,62.3,30.5,30.14,East,92,9.0,12.0,30,0.00,NA,NA,-99.99,VWS Version 10.39,2013-02-15 14:16:00,
2013-02-15 06:21:00,62.5,29.8,30.14,East,83,9.0,12.0,29,0.00,NA,NA,-99.99,VWS Version 10.39,2013-02-15 14:21:00,
2013-02-15 06:26:00,62.5,29.8,30.14,ENE,76,10.0,10.0,29,0.00,NA,NA,-99.99,VWS Version 10.39,2013-02-15 14:26:00,
2013-02-15 06:31:00,62.7,30.0,30.14,East,86,8.0,13.0,29,0.00,NA,NA,-99.99,VWS Version 10.39,2013-02-15 14:31:00,
2013-02-15 06:36:00,62.6,29.9,30.14,East,86,7.0,9.0,29,0.00,NA,NA,-99.99,VWS Version 10.39,2013-02-15 14:36:00,
2013-02-15 06:41:00,62.6,29.9,30.14,East,84,7.0,9.0,29,0.00,NA,NA,-99.99,VWS Version 10.39,2013-02-15 14:41:00,
2013-02-15 06:46:00,62.5,29.8,30.14,NE,36,6.0,8.0,29,0.00,NA,NA,-99.99,VWS Version 10.39,2013-02-15 14:46:00,
2013-02-15 06:51:00,62.2,29.6,30.14,East,80,9.0,9.0,29,0.00,NA,NA,-99.99,VWS Version 10.39,2013-02-15 14:51:00,
2013-02-15 06:56:00,62.3,29.7,30.14,ENE,59,3.0,5.0,29,0.00,NA,NA,-99.99,VWS Version 10.39,2013-02-15 14:56:00,
2013-02-15 07:01:00,61.6,29.9,30.15,NE,51,6.0,7.0,30,0.00,NA,NA,-99.99,VWS Version 10.39,2013-02-15 15:01:00,
2013-02-15 07:11:00,60.7,30.7,30.14,ENE,57,4.0,4.0,32,0.00,NA,NA,-99.99,VWS Version 10.39,2013-02-15 15:11:00,
2013-02-15 07:16:00,61.1,30.3,30.15,ENE,66,1.0,3.0,31,0.00,NA,NA,-99.99,VWS Version 10.39,2013-02-15 15:16:00,
2013-02-15 07:21:00,61.7,30.0,30.15,East,91,5.0,5.0,30,0.00,NA,NA,-99.99,VWS Version 10.39,2013-02-15 15:21:00,
2013-02-15 07:26:00,62.7,30.0,30.15,NE,37,3.0,4.0,29,0.00,NA,NA,-99.99,VWS Version 10.39,2013-02-15 15:26:00,
2013-02-15 07:31:00,63.5,29.8,30.15,East,80,2.0,5.0,28,0.00,NA,NA,-99.99,VWS Version 10.39,2013-02-15 15:31:00,
2013-02-15 07:36:00,63.3,31.4,30.16,NE,55,2.0,2.0,30,0.00,NA,NA,-99.99,VWS Version 10.39,2013-02-15 15:36:00,
2013-02-15 07:41:00,63.1,31.2,30.16,NNE,30,4.0,4.0,30,0.00,NA,NA,-99.99,VWS Version 10.39,2013-02-15 15:41:00,
2013-02-15 07:46:00,62.7,31.6,30.16,NE,51,4.0,4.0,31,0.00,NA,NA,-99.99,VWS Version 10.39,2013-02-15 15:46:00,
2013-02-15 07:51:00,63.1,32.0,30.16,NE,51,1.0,4.0,31,0.00,NA,NA,-99.99,VWS Version 10.39,2013-02-15 15:51:00,
2013-02-15 07:56:00,63.7,32.5,30.16,NE,41,2.0,3.0,31,0.00,NA,NA,-99.99,VWS Version 10.39,2013-02-15 15:56:00,
2013-02-15 08:01:00,64.1,32.1,30.16,NNE,27,2.0,3.0,30,0.00,NA,NA,-99.99,VWS Version 10.39,2013-02-15 16:01:00,
2013-02-15 08:06:00,64.7,32.6,30.17,NE,38,3.0,3.0,30,0.00,NA,NA,-99.99,VWS Version 10.39,2013-02-15 16:06:00,
2013-02-15 08:11:00,65.2,33.0,30.17,NE,50,1.0,1.0,30,0.00,NA,NA,-99.99,VWS Version 10.39,2013-02-15 16:11:00,
2013-02-15 08:16:00,65.9,32.8,30.17,NE,47,1.0,1.0,29,0.00,NA,NA,-99.99,VWS Version 10.39,2013-02-15 16:16:00,
2013-02-15 08:21:00,66.5,33.3,30.17,NE,54,1.0,1.0,29,0.00,NA,NA,-99.99,VWS Version 10.39,2013-02-15 16:21:00,
2013-02-15 08:26:00,66.6,33.4,30.17,NNE,23,4.0,5.0,29,0.00,NA,NA,-99.99,VWS Version 10.39,2013-02-15 16:26:00,
2013-02-15 08:31:00,66.6,32.5,30.17,NNE,27,2.0,3.0,28,0.00,NA,NA,-99.99,VWS Version 10.39,2013-02-15 16:31:00,
2013-02-15 08:36:00,67.2,33.9,30.17,NE,36,2.0,3.0,29,0.00,NA,NA,-99.99,VWS Version 10.39,2013-02-15 16:36:00,
2013-02-15 08:41:00,67.8,33.5,30.17,ESE,102,3.0,3.0,28,0.00,NA,NA,-99.99,VWS Version 10.39,2013-02-15 16:41:00,
2013-02-15 08:46:00,68.6,34.2,30.17,East,79,2.0,3.0,28,0.00,NA,NA,-99.99,VWS Version 10.39,2013-02-15 16:46:00,
2013-02-15 08:51:00,69.1,34.7,30.17,NNE,23,1.0,2.0,28,0.00,NA,NA,-99.99,VWS Version 10.39,2013-02-15 16:51:00,
2013-02-15 08:56:00,69.6,33.2,30.17,East,95,2.0,5.0,26,0.00,NA,NA,-99.99,VWS Version 10.39,2013-02-15 16:56:00,
2013-02-15 09:01:00,70.6,32.1,30.17,ESE,122,7.0,7.0,24,0.00,NA,NA,-99.99,VWS Version 10.39,2013-02-15 17:01:00,
2013-02-15 09:06:00,71.0,32.4,30.17,East,97,5.0,6.0,24,0.00,NA,NA,-99.99,VWS Version 10.39,2013-02-15 17:06:00,
2013-02-15 09:11:00,71.5,31.8,30.17,East,90,6.0,7.0,23,0.00,NA,NA,-99.99,VWS Version 10.39,2013-02-15 17:11:00,
2013-02-15 09:16:00,72.0,30.0,30.17,East,89,8.0,8.0,21,0.00,NA,NA,-99.99,VWS Version 10.39,2013-02-15 17:16:00,
2013-02-15 09:21:00,72.5,30.4,30.17,East,92,6.0,7.0,21,0.00,NA,NA,-99.99,VWS Version 10.39,2013-02-15 17:21:00,
2013-02-15 09:26:00,73.0,29.6,30.17,SE,143,6.0,6.0,20,0.00,NA,NA,-99.99,VWS Version 10.39,2013-02-15 17:26:00,
2013-02-15 09:31:00,73.3,28.6,30.17,East,84,7.0,7.0,19,0.00,NA,NA,-99.99,VWS Version 10.39,2013-02-15 17:31:00,
2013-02-15 09:36:00,73.7,28.9,30.17,East,94,3.0,5.0,19,0.00,NA,NA,-99.99,VWS Version 10.39,2013-02-15 17:36:00,
2013-02-15 09:41:00,74.1,29.2,30.17,ENE,63,3.0,6.0,19,0.00,NA,NA,-99.99,VWS Version 10.39,2013-02-15 17:41:00,
2013-02-15 09:46:00,74.6,28.3,30.16,East,80,3.0,3.0,18,0.00,NA,NA,-99.99,VWS Version 10.39,2013-02-15 17:46:00,
2013-02-15 09:51:00,75.1,25.9,30.16,ESE,121,0.0,0.0,16,0.00,NA,NA,-99.99,VWS Version 10.39,2013-02-15 17:51:00,
2013-02-15 09:56:00,76.0,32.1,30.16,NW,304,1.0,1.0,20,0.00,NA,NA,-99.99,VWS Version 10.39,2013-02-15 17:56:00,
2013-02-15 10:01:00,75.9,38.6,30.16,NW,309,3.0,4.0,26,0.00,NA,NA,-99.99,VWS Version 10.39,2013-02-15 18:01:00,
2013-02-15 10:11:00,69.9,41.0,30.17,NW,308,4.0,4.0,35,0.00,NA,NA,-99.99,VWS Version 10.39,2013-02-15 18:11:00,
2013-02-15 10:16:00,69.3,40.5,30.16,NW,306,4.0,4.0,35,0.00,NA,NA,-99.99,VWS Version 10.39,2013-02-15 18:16:00,
2013-02-15 10:21:00,69.8,37.0,30.16,WNW,290,6.0,6.0,30,0.00,NA,NA,-99.99,VWS Version 10.39,2013-02-15 18:21:00,
2013-02-15 10:26:00,70.1,34.6,30.16,WNW,301,3.0,4.0,27,0.00,NA,NA,-99.99,VWS Version 10.39,2013-02-15 18:26:00,
2013-02-15 10:31:00,70.6,36.8,30.16,WNW,291,3.0,3.0,29,0.00,NA,NA,-99.99,VWS Version 10.39,2013-02-15 18:31:00,
2013-02-15 10:36:00,71.3,36.5,30.16,NNW,337,2.0,2.0,28,0.00,NA,NA,-99.99,VWS Version 10.39,2013-02-15 18:36:00,
2013-02-15 10:41:00,71.9,36.1,30.16,NW,324,2.0,3.0,27,0.00,NA,NA,-99.99,VWS Version 10.39,2013-02-15 18:41:00,
2013-02-15 10:46:00,73.0,38.9,30.16,NNE,22,0.0,2.0,29,0.00,NA,NA,-99.99,VWS Version 10.39,2013-02-15 18:46:00,
2013-02-15 10:51:00,73.5,36.5,30.16,WNW,296,4.0,4.0,26,0.00,NA,NA,-99.99,VWS Version 10.39,2013-02-15 18:51:00,
2013-02-15 10:56:00,72.4,34.6,30.16,NW,306,5.0,5.0,25,0.00,NA,NA,-99.99,VWS Version 10.39,2013-02-15 18:56:00,
2013-02-15 11:01:00,72.0,33.3,30.16,West,279,4.0,5.0,24,0.00,NA,NA,-99.99,VWS Version 10.39,2013-02-15 19:01:00,
2013-02-15 11:11:00,71.8,33.1,30.15,WNW,294,3.0,4.0,24,0.00,NA,NA,-99.99,VWS Version 10.39,2013-02-15 19:11:00,
2013-02-15 11:16:00,72.0,31.1,30.15,West,265,1.0,4.0,22,0.00,NA,NA,-99.99,VWS Version 10.39,2013-02-15 19:16:00,
2013-02-15 11:21:00,72.4,32.5,30.15,WNW,294,3.0,5.0,23,0.00,NA,NA,-99.99,VWS Version 10.39,2013-02-15 19:21:00,
2013-02-15 11:26:00,72.4,31.4,30.15,WNW,298,9.0,9.0,22,0.00,NA,NA,-99.99,VWS Version 10.39,2013-02-15 19:26:00,
2013-02-15 11:31:00,72.1,30.0,30.15,WSW,245,6.0,7.0,21,0.00,NA,NA,-99.99,VWS Version 10.39,2013-02-15 19:31:00,
2013-02-15 11:36:00,72.1,31.2,30.15,West,271,5.0,7.0,22,0.00,NA,NA,-99.99,VWS Version 10.39,2013-02-15 19:36:00,
2013-02-15 11:41:00,72.5,31.5,30.15,NW,315,5.0,5.0,22,0.00,NA,NA,-99.99,VWS Version 10.39,2013-02-15 19:41:00,
2013-02-15 11:46:00,72.7,31.7,30.15,WNW,282,5.0,7.0,22,0.00,NA,NA,-99.99,VWS Version 10.39,2013-02-15 19:46:00,
2013-02-15 11:51:00,72.9,30.7,30.14,WSW,244,7.0,7.0,21,0.00,NA,NA,-99.99,VWS Version 10.39,2013-02-15 19:51:00,
2013-02-15 11:56:00,73.3,31.0,30.14,NNW,338,5.0,6.0,21,0.00,NA,NA,-99.99,VWS Version 10.39,2013-02-15 19:56:00,
2013-02-15 12:01:00,73.7,42.8,30.14,WNW,283,4.0,4.0,33,0.00,NA,NA,-99.99,VWS Version 10.39,2013-02-15 20:01:00,
2013-02-15 12:11:00,70.5,40.8,30.14,SSW,198,2.0,4.0,34,0.00,NA,NA,-99.99,VWS Version 10.39,2013-02-15 20:11:00,
2013-02-15 12:16:00,69.7,45.6,30.14,WSW,253,3.0,4.0,42,0.00,NA,NA,-99.99,VWS Version 10.39,2013-02-15 20:16:00,
2013-02-15 12:21:00,68.9,47.3,30.14,SSW,192,3.0,5.0,46,0.00,NA,NA,-99.99,VWS Version 10.39,2013-02-15 20:21:00,
2013-02-15 12:26:00,67.9,47.5,30.14,SW,230,3.0,4.0,48,0.00,NA,NA,-99.99,VWS Version 10.39,2013-02-15 20:26:00,
2013-02-15 12:31:00,67.5,48.2,30.13,SE,138,1.0,3.0,50,0.00,NA,NA,-99.99,VWS Version 10.39,2013-02-15 20:31:00,
2013-02-15 12:36:00,67.5,47.7,30.13,SSW,194,4.0,5.0,49,0.00,NA,NA,-99.99,VWS Version 10.39,2013-02-15 20:36:00,
2013-02-15 12:41:00,67.6,48.3,30.13,NNW,328,2.0,3.0,50,0.00,NA,NA,-99.99,VWS Version 10.39,2013-02-15 20:41:00,
2013-02-15 12:46:00,68.1,49.3,30.13,WNW,296,5.0,6.0,51,0.00,NA,NA,-99.99,VWS Version 10.39,2013-02-15 20:46:00,
2013-02-15 12:56:00,67.9,49.1,30.12,WSW,252,2.0,4.0,51,0.00,NA,NA,-99.99,VWS Version 10.39,2013-02-15 20:56:00,
2013-02-15 13:01:00,68.1,48.2,30.13,NW,307,3.0,4.0,49,0.00,NA,NA,-99.99,VWS Version 10.39,2013-02-15 21:01:00,
2013-02-15 13:06:00,68.9,47.3,30.12,NW,305,6.0,7.0,46,0.00,NA,NA,-99.99,VWS Version 10.39,2013-02-15 21:06:00,
2013-02-15 13:11:00,69.2,46.4,30.12,WNW,284,1.0,2.0,44,0.00,NA,NA,-99.99,VWS Version 10.39,2013-02-15 21:11:00,
2013-02-15 13:16:00,70.0,46.5,30.12,WSW,244,4.0,4.0,43,0.00,NA,NA,-99.99,VWS Version 10.39,2013-02-15 21:16:00,
2013-02-15 13:21:00,70.0,47.1,30.12,WSW,242,3.0,5.0,44,0.00,NA,NA,-99.99,VWS Version 10.39,2013-02-15 21:21:00,
2013-02-15 13:26:00,69.5,49.0,30.11,NE,55,2.0,4.0,48,0.00,NA,NA,-99.99,VWS Version 10.39,2013-02-15 21:26:00,
2013-02-15 13:31:00,69.4,47.7,30.11,SE,141,3.0,3.0,46,0.00,NA,NA,-99.99,VWS Version 10.39,2013-02-15 21:31:00,
2013-02-15 13:36:00,69.0,47.4,30.11,WSW,248,4.0,6.0,46,0.00,NA,NA,-99.99,VWS Version 10.39,2013-02-15 21:36:00,
2013-02-15 13:41:00,68.6,44.0,30.11,SW,228,4.0,7.0,41,0.00,NA,NA,-99.99,VWS Version 10.39,2013-02-15 21:41:00,
2013-02-15 13:46:00,69.4,39.1,30.11,NNW,333,4.0,6.0,33,0.00,NA,NA,-99.99,VWS Version 10.39,2013-02-15 21:46:00,
2013-02-15 13:51:00,70.5,43.0,30.11,West,263,3.0,3.0,37,0.00,NA,NA,-99.99,VWS Version 10.39,2013-02-15 21:51:00,
2013-02-15 13:56:00,70.9,47.9,30.11,SW,217,2.0,2.0,44,0.00,NA,NA,-99.99,VWS Version 10.39,2013-02-15 21:56:00,
2013-02-15 14:01:00,70.4,46.2,30.11,WSW,246,0.0,0.0,42,0.00,NA,NA,-99.99,VWS Version 10.39,2013-02-15 22:01:00,
2013-02-15 14:11:00,70.8,44.0,30.11,ESE,121,0.0,1.0,38,0.00,NA,NA,-99.99,VWS Version 10.39,2013-02-15 22:11:00,
2013-02-15 14:16:00,71.5,39.3,30.11,WNW,294,5.0,5.0,31,0.00,NA,NA,-99.99,VWS Version 10.39,2013-02-15 22:16:00,
2013-02-15 14:21:00,72.1,38.1,30.11,WSW,254,4.0,5.0,29,0.00,NA,NA,-99.99,VWS Version 10.39,2013-02-15 22:21:00,
2013-02-15 14:26:00,72.1,41.4,30.11,WSW,248,2.0,4.0,33,0.00,NA,NA,-99.99,VWS Version 10.39,2013-02-15 22:26:00,
2013-02-15 14:31:00,72.1,39.0,30.11,NW,311,1.0,2.0,30,0.00,NA,NA,-99.99,VWS Version 10.39,2013-02-15 22:31:00,
2013-02-15 14:36:00,72.3,38.3,30.11,NNE,13,3.0,3.0,29,0.00,NA,NA,-99.99,VWS Version 10.39,2013-02-15 22:36:00,
2013-02-15 14:41:00,72.1,43.7,30.11,West,264,4.0,4.0,36,0.00,NA,NA,-99.99,VWS Version 10.39,2013-02-15 22:41:00,
2013-02-15 14:46:00,71.4,43.8,30.11,WSW,251,1.0,1.0,37,0.00,NA,NA,-99.99,VWS Version 10.39,2013-02-15 22:46:00,
2013-02-15 14:51:00,71.2,42.2,30.11,North,355,0.0,1.0,35,0.00,NA,NA,-99.99,VWS Version 10.39,2013-02-15 22:51:00,
2013-02-15 14:56:00,70.7,38.6,30.11,WNW,291,3.0,6.0,31,0.00,NA,NA,-99.99,VWS Version 10.39,2013-02-15 22:56:00,
2013-02-15 15:01:00,70.2,36.5,30.11,WNW,300,6.0,7.0,29,0.00,NA,NA,-99.99,VWS Version 10.39,2013-02-15 23:01:00,
2013-02-15 15:06:00,70.6,34.1,30.11,NW,319,8.0,8.0,26,0.00,NA,NA,-99.99,VWS Version 10.39,2013-02-15 23:06:00,
2013-02-15 15:11:00,71.4,32.8,30.11,WNW,283,2.0,4.0,24,0.00,NA,NA,-99.99,VWS Version 10.39,2013-02-15 23:11:00,
2013-02-15 15:16:00,72.5,33.7,30.11,NW,323,3.0,3.0,24,0.00,NA,NA,-99.99,VWS Version 10.39,2013-02-15 23:16:00,
2013-02-15 15:26:00,74.5,36.4,30.11,WNW,286,4.0,4.0,25,0.00,NA,NA,-99.99,VWS Version 10.39,2013-02-15 23:26:00,
2013-02-15 15:31:00,74.7,34.5,30.12,North,360,3.0,4.0,23,0.00,NA,NA,-99.99,VWS Version 10.39,2013-02-15 23:31:00,
2013-02-15 15:36:00,74.8,34.6,30.12,WNW,294,2.0,5.0,23,0.00,NA,NA,-99.99,VWS Version 10.39,2013-02-15 23:36:00,
2013-02-15 15:41:00,73.6,31.3,30.12,NW,304,3.0,5.0,21,0.00,NA,NA,-99.99,VWS Version 10.39,2013-02-15 23:41:00,
2013-02-15 15:46:00,72.8,31.8,30.12,SW,232,3.0,3.0,22,0.00,NA,NA,-99.99,VWS Version 10.39,2013-02-15 23:46:00,
2013-02-15 15:56:00,71.1,33.5,30.12,West,268,4.0,5.0,25,0.00,NA,NA,-99.99,VWS Version 10.39,2013-02-15 23:56:00,
2013-02-15 16:01:00,70.7,33.2,30.12,WSW,250,2.0,2.0,25,0.00,NA,NA,-99.99,VWS Version 10.39,2013-02-16 00:01:00,
2013-02-15 16:06:00,70.7,34.2,30.12,West,261,5.0,5.0,26,0.00,NA,NA,-99.99,VWS Version 10.39,2013-02-16 00:06:00,
2013-02-15 16:11:00,70.6,37.7,30.12,SSW,211,0.0,1.0,30,0.00,NA,NA,-99.99,VWS Version 10.39,2013-02-16 00:11:00,
2013-02-15 16:16:00,70.2,42.7,30.12,SSW,201,1.0,1.0,37,0.00,NA,NA,-99.99,VWS Version 10.39,2013-02-16 00:16:00,
2013-02-15 16:21:00,69.4,42.0,30.12,West,267,1.0,2.0,37,0.00,NA,NA,-99.99,VWS Version 10.39,2013-02-16 00:21:00,
2013-02-15 16:26:00,68.8,42.2,30.12,SW,217,3.0,4.0,38,0.00,NA,NA,-99.99,VWS Version 10.39,2013-02-16 00:26:00,
2013-02-15 16:31:00,68.5,42.6,30.13,SSW,203,1.0,1.0,39,0.00,NA,NA,-99.99,VWS Version 10.39,2013-02-16 00:31:00,
2013-02-15 16:36:00,68.4,42.5,30.13,SSW,193,0.0,1.0,39,0.00,NA,NA,-99.99,VWS Version 10.39,2013-02-16 00:36:00,
2013-02-15 16:41:00,68.1,44.2,30.13,SSW,200,1.0,1.0,42,0.00,NA,NA,-99.99,VWS Version 10.39,2013-02-16 00:41:00,
2013-02-15 16:46:00,67.6,44.3,30.13,SSW,200,0.0,0.0,43,0.00,NA,NA,-99.99,VWS Version 10.39,2013-02-16 00:46:00,
2013-02-15 16:51:00,67.4,45.3,30.13,SSE,159,1.0,2.0,45,0.00,NA,NA,-99.99,VWS Version 10.39,2013-02-16 00:51:00,
2013-02-15 17:01:00,66.1,41.7,30.13,SSE,155,1.0,1.0,41,0.00,NA,NA,-99.99,VWS Version 10.39,2013-02-16 01:01:00,
2013-02-15 17:11:00,65.7,40.1,30.13,SE,137,0.0,0.0,39,0.00,NA,NA,-99.99,VWS Version 10.39,2013-02-16 01:11:00,
2013-02-15 17:16:00,66.0,39.0,30.13,SE,137,0.0,0.0,37,0.00,NA,NA,-99.99,VWS Version 10.39,2013-02-16 01:16:00,
2013-02-15 17:21:00,66.4,38.7,30.14,SE,137,0.0,0.0,36,0.00,NA,NA,-99.99,VWS Version 10.39,2013-02-16 01:21:00,
2013-02-15 17:26:00,66.5,38.8,30.13,SE,137,0.0,0.0,36,0.00,NA,NA,-99.99,VWS Version 10.39,2013-02-16 01:26:00,
2013-02-15 17:31:00,66.5,39.5,30.14,SE,137,1.0,1.0,37,0.00,NA,NA,-99.99,VWS Version 10.39,2013-02-16 01:31:00,
2013-02-15 17:36:00,66.3,42.5,30.14,SE,146,1.0,2.0,42,0.00,NA,NA,-99.99,VWS Version 10.39,2013-02-16 01:36:00,
2013-02-15 17:41:00,65.5,46.4,30.14,South,177,0.0,0.0,50,0.00,NA,NA,-99.99,VWS Version 10.39,2013-02-16 01:41:00,
2013-02-15 17:46:00,64.8,43.0,30.14,South,177,0.0,0.0,45,0.00,NA,NA,-99.99,VWS Version 10.39,2013-02-16 01:46:00,
2013-02-15 17:51:00,64.5,41.5,30.14,South,177,0.0,0.0,43,0.00,NA,NA,-99.99,VWS Version 10.39,2013-02-16 01:51:00,
2013-02-15 17:56:00,64.4,42.0,30.14,South,177,0.0,1.0,44,0.00,NA,NA,-99.99,VWS Version 10.39,2013-02-16 01:56:00,
2013-02-15 18:01:00,64.2,43.6,30.14,South,175,0.0,0.0,47,0.00,NA,NA,-99.99,VWS Version 10.39,2013-02-16 02:01:00,
2013-02-15 18:06:00,64.1,42.3,30.14,South,175,0.0,0.0,45,0.00,NA,NA,-99.99,VWS Version 10.39,2013-02-16 02:06:00,
2013-02-15 18:11:00,64.3,40.7,30.14,ENE,59,3.0,3.0,42,0.00,NA,NA,-99.99,VWS Version 10.39,2013-02-16 02:11:00,
2013-02-15 18:16:00,64.3,39.5,30.14,NE,46,2.0,3.0,40,0.00,NA,NA,-99.99,VWS Version 10.39,2013-02-16 02:16:00,
2013-02-15 18:21:00,64.3,39.5,30.15,SW,224,1.0,2.0,40,0.00,NA,NA,-99.99,VWS Version 10.39,2013-02-16 02:21:00,
2013-02-15 18:26:00,64.1,39.3,30.15,SW,224,0.0,0.0,40,0.00,NA,NA,-99.99,VWS Version 10.39,2013-02-16 02:26:00,
2013-02-15 18:31:00,63.9,38.5,30.15,North,349,2.0,2.0,39,0.00,NA,NA,-99.99,VWS Version 10.39,2013-02-16 02:31:00,
2013-02-15 18:36:00,64.1,37.3,30.15,NE,39,3.0,3.0,37,0.00,NA,NA,-99.99,VWS Version 10.39,2013-02-16 02:36:00,
2013-02-15 18:41:00,64.3,36.8,30.15,ENE,60,3.0,4.0,36,0.00,NA,NA,-99.99,VWS Version 10.39,2013-02-16 02:41:00,
2013-02-15 18:46:00,64.7,35.0,30.15,East,81,6.0,6.0,33,0.00,NA,NA,-99.99,VWS Version 10.39,2013-02-16 02:46:00,
2013-02-15 18:51:00,65.8,33.5,30.15,East,101,3.0,5.0,30,0.00,NA,NA,-99.99,VWS Version 10.39,2013-02-16 02:51:00,
2013-02-15 18:56:00,66.4,33.2,30.15,NE,43,2.0,5.0,29,0.00,NA,NA,-99.99,VWS Version 10.39,2013-02-16 02:56:00,
2013-02-15 19:01:00,66.4,34.0,30.15,SE,145,0.0,1.0,30,0.00,NA,NA,-99.99,VWS Version 10.39,2013-02-16 03:01:00,
2013-02-15 19:06:00,65.7,34.3,30.15,SE,145,0.0,1.0,31,0.00,NA,NA,-99.99,VWS Version 10.39,2013-02-16 03:06:00,
2013-02-15 19:11:00,65.0,33.7,30.15,SE,145,0.0,0.0,31,0.00,NA,NA,-99.99,VWS Version 10.39,2013-02-16 03:11:00,
2013-02-15 19:16:00,64.8,32.7,30.16,SE,145,0.0,0.0,30,0.00,NA,NA,-99.99,VWS Version 10.39,2013-02-16 03:16:00,
2013-02-15 19:21:00,64.6,33.3,30.16,NE,52,2.0,3.0,31,0.00,NA,NA,-99.99,VWS Version 10.39,2013-02-16 03:21:00,
2013-02-15 19:26:00,65.0,32.0,30.16,NNE,33,5.0,5.0,29,0.00,NA,NA,-99.99,VWS Version 10.39,2013-02-16 03:26:00,
2013-02-15 19:31:00,65.1,31.2,30.16,NNE,31,4.0,6.0,28,0.00,NA,NA,-99.99,VWS Version 10.39,2013-02-16 03:31:00,
2013-02-15 19:36:00,64.9,30.1,30.16,NE,49,4.0,5.0,27,0.00,NA,NA,-99.99,VWS Version 10.39,2013-02-16 03:36:00,
2013-02-15 19:41:00,64.7,29.0,30.17,NE,49,2.0,3.0,26,0.00,NA,NA,-99.99,VWS Version 10.39,2013-02-16 03:41:00,
2013-02-15 19:46:00,64.7,30.0,30.16,ENE,65,1.0,1.0,27,0.00,NA,NA,-99.99,VWS Version 10.39,2013-02-16 03:46:00,
2013-02-15 19:51:00,64.0,31.1,30.16,ENE,65,1.0,1.0,29,0.00,NA,NA,-99.99,VWS Version 10.39,2013-02-16 03:51:00,
2013-02-15 19:56:00,63.5,29.0,30.16,NE,47,1.0,2.0,27,0.00,NA,NA,-99.99,VWS Version 10.39,2013-02-16 03:56:00,
2013-02-15 20:01:00,63.4,28.9,30.16,NE,43,0.0,1.0,27,0.00,NA,NA,-99.99,VWS Version 10.39,2013-02-16 04:01:00,
2013-02-15 20:06:00,64.4,23.6,30.16,East,86,5.0,8.0,21,0.00,NA,NA,-99.99,VWS Version 10.39,2013-02-16 04:06:00,
2013-02-15 20:11:00,66.3,24.1,30.17,East,80,7.0,8.0,20,0.00,NA,NA,-99.99,VWS Version 10.39,2013-02-16 04:11:00,
2013-02-15 20:16:00,66.4,24.1,30.17,ENE,75,9.0,10.0,20,0.00,NA,NA,-99.99,VWS Version 10.39,2013-02-16 04:16:00,
2013-02-15 20:21:00,66.3,22.8,30.17,East,82,7.0,8.0,19,0.00,NA,NA,-99.99,VWS Version 10.39,2013-02-16 04:21:00,
2013-02-15 20:26:00,66.7,23.2,30.17,ENE,57,7.0,8.0,19,0.00,NA,NA,-99.99,VWS Version 10.39,2013-02-16 04:26:00,
2013-02-15 20:36:00,66.6,21.8,30.17,ENE,76,5.0,8.0,18,0.00,NA,NA,-99.99,VWS Version 10.39,2013-02-16 04:36:00,
2013-02-15 20:41:00,66.7,21.9,30.17,East,90,9.0,11.0,18,0.00,NA,NA,-99.99,VWS Version 10.39,2013-02-16 04:41:00,
2013-02-15 20:46:00,66.5,21.7,30.17,ENE,66,5.0,9.0,18,0.00,NA,NA,-99.99,VWS Version 10.39,2013-02-16 04:46:00,
2013-02-15 20:51:00,66.4,21.6,30.17,East,83,8.0,8.0,18,0.00,NA,NA,-99.99,VWS Version 10.39,2013-02-16 04:51:00,
2013-02-15 20:56:00,66.4,21.6,30.17,East,93,6.0,10.0,18,0.00,NA,NA,-99.99,VWS Version 10.39,2013-02-16 04:56:00,
2013-02-15 21:01:00,66.5,21.7,30.17,ENE,78,5.0,10.0,18,0.00,NA,NA,-99.99,VWS Version 10.39,2013-02-16 05:01:00,
2013-02-15 21:06:00,66.6,21.8,30.17,East,88,7.0,9.0,18,0.00,NA,NA,-99.99,VWS Version 10.39,2013-02-16 05:06:00,
2013-02-15 21:11:00,66.6,21.8,30.17,East,92,11.0,11.0,18,0.00,NA,NA,-99.99,VWS Version 10.39,2013-02-16 05:11:00,
2013-02-15 21:16:00,66.4,21.6,30.17,East,89,10.0,10.0,18,0.00,NA,NA,-99.99,VWS Version 10.39,2013-02-16 05:16:00,
2013-02-15 21:26:00,66.7,21.9,30.17,ENE,76,8.0,8.0,18,0.00,NA,NA,-99.99,VWS Version 10.39,2013-02-16 05:26:00,
2013-02-15 21:31:00,66.4,21.6,30.17,East,88,8.0,9.0,18,0.00,NA,NA,-99.99,VWS Version 10.39,2013-02-16 05:31:00,
2013-02-15 21:36:00,66.2,21.5,30.17,East,89,10.0,11.0,18,0.00,NA,NA,-99.99,VWS Version 10.39,2013-02-16 05:36:00,
2013-02-15 21:41:00,66.1,21.4,30.16,East,94,10.0,10.0,18,0.00,NA,NA,-99.99,VWS Version 10.39,2013-02-16 05:41:00,
2013-02-15 21:46:00,66.4,21.6,30.16,East,86,13.0,14.0,18,0.00,NA,NA,-99.99,VWS Version 10.39,2013-02-16 05:46:00,
2013-02-15 21:51:00,66.7,21.9,30.16,NE,53,7.0,9.0,18,0.00,NA,NA,-99.99,VWS Version 10.39,2013-02-16 05:51:00,
2013-02-15 21:56:00,66.9,20.7,30.16,East,84,9.0,14.0,17,0.00,NA,NA,-99.99,VWS Version 10.39,2013-02-16 05:56:00,
2013-02-15 22:01:00,67.2,20.9,30.16,East,96,8.0,9.0,17,0.00,NA,NA,-99.99,VWS Version 10.39,2013-02-16 06:01:00,
2013-02-15 22:06:00,67.5,21.2,30.16,East,86,9.0,11.0,17,0.00,NA,NA,-99.99,VWS Version 10.39,2013-02-16 06:06:00,
2013-02-15 22:11:00,67.8,21.4,30.15,East,82,10.0,10.0,17,0.00,NA,NA,-99.99,VWS Version 10.39,2013-02-16 06:11:00,
2013-02-15 22:16:00,67.6,21.3,30.15,East,92,9.0,9.0,17,0.00,NA,NA,-99.99,VWS Version 10.39,2013-02-16 06:16:00,
2013-02-15 22:21:00,67.2,20.9,30.15,East,88,9.0,9.0,17,0.00,NA,NA,-99.99,VWS Version 10.39,2013-02-16 06:21:00,
2013-02-15 22:26:00,67.1,20.9,30.15,East,85,10.0,10.0,17,0.00,NA,NA,-99.99,VWS Version 10.39,2013-02-16 06:26:00,
2013-02-15 22:31:00,68.0,20.2,30.15,East,86,7.0,8.0,16,0.00,NA,NA,-99.99,VWS Version 10.39,2013-02-16 06:31:00,
2013-02-15 22:36:00,67.7,19.9,30.15,East,89,5.0,6.0,16,0.00,NA,NA,-99.99,VWS Version 10.39,2013-02-16 06:36:00,
2013-02-15 22:41:00,67.3,21.0,30.15,East,86,1.0,1.0,17,0.00,NA,NA,-99.99,VWS Version 10.39,2013-02-16 06:41:00,
2013-02-15 22:46:00,66.6,21.8,30.15,East,84,0.0,1.0,18,0.00,NA,NA,-99.99,VWS Version 10.39,2013-02-16 06:46:00,
2013-02-15 22:51:00,65.6,22.3,30.15,WNW,291,2.0,2.0,19,0.00,NA,NA,-99.99,VWS Version 10.39,2013-02-16 06:51:00,
2013-02-15 22:56:00,64.7,21.5,30.15,NNW,342,3.0,4.0,19,0.00,NA,NA,-99.99,VWS Version 10.39,2013-02-16 06:56:00,
2013-02-15 23:01:00,65.2,20.7,30.15,NNW,329,1.0,3.0,18,0.00,NA,NA,-99.99,VWS Version 10.39,2013-02-16 07:01:00,
2013-02-15 23:11:00,65.6,21.0,30.15,NNE,26,2.0,4.0,18,0.00,NA,NA,-99.99,VWS Version 10.39,2013-02-16 07:11:00,
2013-02-15 23:16:00,65.6,21.0,30.15,ENE,63,3.0,3.0,18,0.00,NA,NA,-99.99,VWS Version 10.39,2013-02-16 07:16:00,
2013-02-15 23:21:00,65.4,20.8,30.14,NE,35,3.0,3.0,18,0.00,NA,NA,-99.99,VWS Version 10.39,2013-02-16 07:21:00,
2013-02-15 23:26:00,65.2,20.7,30.14,NE,40,1.0,1.0,18,0.00,NA,NA,-99.99,VWS Version 10.39,2013-02-16 07:26:00,
2013-02-15 23:31:00,64.8,21.6,30.14,NE,40,0.0,2.0,19,0.00,NA,NA,-99.99,VWS Version 10.39,2013-02-16 07:31:00,
2013-02-15 23:36:00,64.4,21.3,30.14,NE,40,0.0,0.0,19,0.00,NA,NA,-99.99,VWS Version 10.39,2013-02-16 07:36:00,
2013-02-15 23:41:00,63.9,20.9,30.14,NE,40,0.0,0.0,19,0.00,NA,NA,-99.99,VWS Version 10.39,2013-02-16 07:41:00,
2013-02-15 23:46:00,63.5,21.7,30.13,NE,40,0.0,0.0,20,0.00,NA,NA,-99.99,VWS Version 10.39,2013-02-16 07:46:00,
2013-02-15 23:51:00,63.2,21.5,30.14,NE,40,0.0,0.0,20,0.00,NA,NA,-99.99,VWS Version 10.39,2013-02-16 07:51:00,
2013-02-15 23:56:00,63.1,21.4,30.13,NE,40,0.0,0.0,20,0.00,NA,NA,-99.99,VWS Version 10.39,2013-02-16 07:56:00,